Aérodrome :
LOGIN :

S'inscrire | Disclaimer

   EN    FR    IT 

 










Légende :    VFR   VFR Marginal   IFR   IFR Intensif   IFR Très Intensif
Visi : 
Plafond : 
>= 8 km
>= 3000ft
5 à 8 km
1000 à 3000 ft
1500m à 5 km
500 à 1000 ft
800 à 1500m
200 à 500 ft
< 800m
< 200 ft
Symboles :   Orages  Brouillard  Fortes neiges  Fortes précipitations  Vent > 20 kt
SIGMETs :   Divers  Orages  Givrage  Turbulence  Onde Orograph.  Cendres Volcan.







- Altitude de l'aérodrome : 256 ft
- Code IATA : CFR
- Voir les cartes d'approche


LFRK - Caen

DERNIER METAR :
  • 240930Z AUTO 17004KT 140V210 9999 OVC007 17/15 Q1027 BECMG BKN016

METARs EXPIRÉS :
  • 240900Z AUTO VRB02KT 9999 OVC007 16/14 Q1027 BECMG BKN016
  • 240830Z AUTO 00000KT 9999 OVC006 16/14 Q1027 BECMG BKN016
  • 240800Z AUTO 00000KT 9999 OVC005 15/13 Q1027 BECMG BKN020
  • 240730Z AUTO 00000KT 9999 OVC005 15/14 Q1027 BECMG BKN020
  • 240700Z AUTO 00000KT 9999 OVC005 14/13 Q1027 NOSIG

TAF TAF LFRK
Valide du 24 à 09h jusqu'au 24 à 18h UTC


240800Z 2409/2418 VRB03KT 9999 BKN008
BECMG 2409/2411 BKN016
BECMG 2412/2414 02010KT
Météo : +33 2 31 26 68 11
Pas de NOTAMs connus pour ce terrain.



MET'MAP, la Météo Aéronautique d'un coup d'oeil ! - Copyright ORBIFLY Décembre 2007 - Disclaimer

ORBIFLY MET'MAP TEAM :

Programmation & Développement : Alexandra Zaïnal
Conception & Développement : Baudouin d'Aumeries
Co-Programmation & Développement : Marc-Olivier Méhu
Soutien technique & logistique : Manuel Goepfert

Contact : metmap@orbifly.com




SOURCES & CREDITS :

   NOAA